Pecos, TX

3:10 PM CDT on May 24, 2017 (GMT -0500)
Pecos Municipal

Weather History for KPEQ - May, 2014

Change the Weather History Date:

Saturday, May 17, 2014

  Actual Average Record
Temperature  
Mean Temperature 70 °F -  
Max Temperature 90 °F 93 °F 105 °F (1971)
Min Temperature 52 °F 57 °F 43 °F (1973)
Cooling Degree Days 6    
Growing Degree Days 20 (Base 50)    
Moisture  
Dew Point 29 °F    
Average Humidity 21    
Maximum Humidity 31    
Minimum Humidity 15    
Precipitation  
Precipitation 0.00 in - - ()
Sea Level Pressure  
Sea Level Pressure 29.93 in    
Wind  
Wind Speed 8 mph (North)    
Max Wind Speed 26 mph    
Max Gust Speed 34 mph    
Visibility 10 miles    
Events      
Averages and records for this station are not official NWS values.
T = Trace of Precipitation, MM = Missing Value Source: NWS Daily Summary

Daily Weather History Graph

Daily Weather History Graph

Search for Another Location

Airport or City:

Trip Planner

Search our weather history database for the weather conditions in past years. The results will help you decide how hot, cold, wet, or windy it might be!

Date:

Astronomy

May. 17, 2014 Rise Set
Actual Time 6:56 AM CDT 8:44 PM CDT
Civil Twilight 6:29 AM CDT 9:11 PM CDT
Nautical Twilight 5:57 AM CDT 9:43 PM CDT
Astronomical Twilight 5:23 AM CDT 10:17 PM CDT
Moon 11:48 PM CDT (5/17) 9:41 AM CDT (5/17)
Length of Visible Light 14h 41m
Length of Day
13h 47m
Waning Gibbous, 89% of the Moon is Illuminated
May 17
Waning Gibbous
May 21
Last Quarter
May 28
New
Jun 5
First Quarter
Jun 12
Full

Hourly Weather History & Observations

Time (CDT) Temp. Dew Point Humidity Pressure Visibility Wind Dir Wind Speed Gust Speed Precip Events Conditions
12:15 AM 65.3 °F 15.4 °F 15% 29.90 in 10.0 mi WSW 8.1 mph - N/A   Clear
12:35 AM 63.5 °F 15.4 °F 16% 29.90 in 10.0 mi West 9.2 mph - N/A   Clear
12:55 AM 62.4 °F 15.1 °F 16% 29.91 in 10.0 mi SSE 8.1 mph - N/A   Clear
1:15 AM 64.6 °F 15.1 °F 15% 29.90 in 10.0 mi WSW 5.8 mph - N/A   Clear
1:35 AM 64.4 °F 14.7 °F 15% 29.90 in 10.0 mi SE 4.6 mph - N/A   Clear
1:55 AM 63.3 °F 14.4 °F 15% 29.89 in 10.0 mi South 5.8 mph - N/A   Clear
2:15 AM 60.1 °F 13.8 °F 16% 29.89 in 10.0 mi South 4.6 mph - N/A   Clear
2:35 AM 59.7 °F 14.5 °F 17% 29.88 in 10.0 mi SSE 4.6 mph - N/A   Clear
2:55 AM 57.4 °F 14.0 °F 18% 29.87 in 10.0 mi Calm Calm - N/A   Clear
3:15 AM 58.3 °F 15.6 °F 19% 29.87 in 10.0 mi WSW 4.6 mph - N/A   Clear
3:35 AM 55.9 °F 14.7 °F 20% 29.86 in 10.0 mi WSW 3.5 mph - N/A   Clear
3:55 AM 54.9 °F 14.9 °F 21% 29.86 in 10.0 mi Calm Calm - N/A   Clear
4:15 AM 55.6 °F 16.5 °F 22% 29.86 in 10.0 mi ENE 6.9 mph - N/A   Clear
4:35 AM 54.3 °F 15.4 °F 22% 29.86 in 10.0 mi ENE 4.6 mph - N/A   Clear
4:55 AM 53.1 °F 15.3 °F 22% 29.86 in 10.0 mi Calm Calm - N/A   Clear
5:15 AM 54.3 °F 14.9 °F 21% 29.86 in 10.0 mi Calm Calm - N/A   Clear
5:35 AM 55.4 °F 13.8 °F 19% 29.87 in 10.0 mi Calm Calm - N/A   Clear
5:55 AM 54.5 °F 15.4 °F 21% 29.88 in 10.0 mi North 3.5 mph - N/A   Clear
6:15 AM 53.1 °F 17.2 °F 24% 29.90 in 7.0 mi North 11.5 mph 28.8 mph N/A   Clear
6:35 AM 55.4 °F 20.3 °F 25% 29.90 in 10.0 mi NE 6.9 mph - N/A   Clear
6:55 AM 52.2 °F 20.1 °F 28% 29.92 in 10.0 mi West 5.8 mph - N/A   Clear
7:15 AM 55.8 °F 19.6 °F 24% 29.94 in 10.0 mi WNW 10.4 mph - N/A   Clear
7:35 AM 57.7 °F 18.7 °F 22% 29.95 in 10.0 mi NW 15.0 mph - N/A   Clear
7:55 AM 62.4 °F 27.9 °F 27% 29.96 in 5.0 mi NW 18.4 mph - N/A   Haze
8:15 AM 65.1 °F 32.7 °F 30% 29.97 in 4.0 mi NW 21.9 mph 31.1 mph N/A   Haze
8:35 AM 64.9 °F 33.8 °F 31% 29.98 in 5.0 mi NW 21.9 mph 27.6 mph N/A   Haze
8:55 AM 66.2 °F 34.7 °F 31% 29.98 in 7.0 mi NW 25.3 mph 33.4 mph N/A   Clear
9:15 AM 68.2 °F 34.9 °F 29% 29.99 in 5.0 mi NNW 26.5 mph 34.5 mph N/A   Haze
9:35 AM 68.4 °F 35.1 °F 29% 30.00 in 7.0 mi NNW 23.0 mph - N/A   Clear
9:55 AM 69.8 °F 35.8 °F 29% 30.01 in 10.0 mi NNW 21.9 mph 27.6 mph N/A   Clear
10:15 AM 70.9 °F 36.1 °F 28% 30.02 in 10.0 mi NW 19.6 mph - N/A   Clear
10:35 AM 72.1 °F 36.5 °F 27% 30.02 in 10.0 mi NW 20.7 mph 25.3 mph N/A   Clear
10:55 AM 73.0 °F 36.7 °F 27% 30.02 in 10.0 mi NW 21.9 mph 25.3 mph N/A   Clear
11:15 AM 72.9 °F 36.9 °F 27% 30.03 in 10.0 mi NW 15.0 mph - N/A   Clear
11:35 AM 75.6 °F 37.0 °F 25% 30.03 in 5.0 mi NNW 15.0 mph 20.7 mph N/A   Haze
11:55 AM 75.9 °F 37.4 °F 25% 30.03 in 10.0 mi NW 9.2 mph 21.9 mph N/A   Clear
12:15 PM 77.5 °F 37.9 °F 24% 30.02 in 10.0 mi NW 15.0 mph 19.6 mph N/A   Clear
12:35 PM 78.6 °F 38.5 °F 24% 30.02 in 10.0 mi NW 12.7 mph 17.3 mph N/A   Clear
12:55 PM 78.4 °F 39.7 °F 25% 30.02 in 7.0 mi NNW 11.5 mph 20.7 mph N/A   Clear
1:15 PM 79.5 °F 39.2 °F 24% 30.01 in 10.0 mi NNW 11.5 mph 16.1 mph N/A   Clear
1:35 PM 81.9 °F 40.1 °F 23% 29.99 in 10.0 mi NNW 8.1 mph - N/A   Clear
1:55 PM 81.9 °F 39.2 °F 22% 29.98 in 10.0 mi NNW 3.5 mph - N/A   Clear
2:15 PM 82.9 °F 39.0 °F 21% 29.98 in 10.0 mi NE 4.6 mph - N/A   Clear
2:35 PM 84.6 °F 39.2 °F 20% 29.97 in 10.0 mi North 6.9 mph 16.1 mph N/A   Clear
2:55 PM 85.1 °F 38.1 °F 19% 29.96 in 10.0 mi NNW 8.1 mph - N/A   Clear
3:15 PM 85.5 °F 37.4 °F 18% 29.95 in 10.0 mi NNE 4.6 mph - N/A   Clear
3:35 PM 85.6 °F 36.5 °F 17% 29.95 in 10.0 mi West 4.6 mph - N/A   Clear
3:55 PM 86.4 °F 36.9 °F 17% 29.93 in 10.0 mi Calm Calm - N/A   Clear
4:15 PM 88.3 °F 37.2 °F 16% 29.92 in 10.0 mi North 8.1 mph - N/A   Clear
4:35 PM 88.0 °F 36.9 °F 16% 29.91 in 10.0 mi NNE 3.5 mph - N/A   Clear
4:55 PM 89.1 °F 36.7 °F 16% 29.91 in 10.0 mi North 6.9 mph - N/A   Clear
5:15 PM 89.1 °F 36.7 °F 16% 29.90 in 10.0 mi East 5.8 mph - N/A   Clear
5:35 PM 89.4 °F 36.9 °F 16% 29.89 in 10.0 mi NNE 4.6 mph - N/A   Clear
5:55 PM 89.2 °F 36.7 °F 16% 29.89 in 10.0 mi Calm Calm - N/A   Clear
6:15 PM 89.6 °F 37.0 °F 16% 29.88 in 10.0 mi Calm Calm - N/A   Clear
6:35 PM 89.6 °F 36.5 °F 15% 29.88 in 10.0 mi SE 4.6 mph - N/A   Clear
6:55 PM 89.6 °F 36.5 °F 15% 29.88 in 10.0 mi Calm Calm - N/A   Clear
7:15 PM 89.2 °F 36.7 °F 16% 29.87 in 10.0 mi Calm Calm - N/A   Clear
7:35 PM 89.6 °F 37.4 °F 16% 29.87 in 10.0 mi ENE 5.8 mph - N/A   Clear
7:55 PM 88.7 °F 37.2 °F 16% 29.86 in 10.0 mi East 5.8 mph - N/A   Clear
8:15 PM 86.9 °F 37.0 °F 17% 29.87 in 10.0 mi East 6.9 mph - N/A   Clear
8:35 PM 83.3 °F 36.1 °F 19% 29.88 in 10.0 mi East 6.9 mph - N/A   Clear
8:55 PM 79.3 °F 35.6 °F 21% 29.88 in 10.0 mi East 8.1 mph - N/A   Clear
9:15 PM 77.2 °F 34.7 °F 21% 29.89 in 10.0 mi East 8.1 mph - N/A   Clear
9:55 PM 72.5 °F 32.9 °F 23% 29.90 in 10.0 mi ESE 8.1 mph - N/A   Clear
10:15 PM 70.2 °F 32.0 °F 24% 29.90 in 10.0 mi ESE 6.9 mph - N/A   Clear
10:35 PM 69.4 °F 31.8 °F 25% 29.90 in 10.0 mi ESE 6.9 mph - N/A   Clear
10:55 PM 69.4 °F 31.3 °F 24% 29.91 in 10.0 mi ESE 6.9 mph - N/A   Clear
11:15 PM 69.1 °F 31.1 °F 24% 29.91 in 10.0 mi ESE 8.1 mph - N/A   Clear
11:35 PM 67.5 °F 30.7 °F 25% 29.91 in 10.0 mi SE 6.9 mph - N/A   Clear
11:55 PM 66.7 °F 30.4 °F 26% 29.91 in 10.0 mi SE 4.6 mph - N/A   Clear